createdAt,value
2022-12-14T00:00:01.171Z,3.3
2022-12-14T00:05:01.146Z,3.3
2022-12-14T00:10:00.933Z,3.3
2022-12-14T00:15:00.900Z,3.3
2022-12-14T00:20:01.142Z,3.4
2022-12-14T00:25:00.913Z,3.4
2022-12-14T00:30:00.872Z,3.4
2022-12-14T00:35:01.173Z,3.4
2022-12-14T00:40:00.957Z,3.4
2022-12-14T00:45:01.163Z,3.4
2022-12-14T00:50:01.113Z,3.4
2022-12-14T00:55:01.180Z,3.4
2022-12-14T01:00:01.162Z,3.4
2022-12-14T01:05:01.138Z,3.4
2022-12-14T01:10:01.145Z,3.4
2022-12-14T01:15:01.165Z,3.4
2022-12-14T01:20:01.173Z,3.4
2022-12-14T01:25:01.168Z,3.4
2022-12-14T01:30:01.165Z,3.4
2022-12-14T01:35:01.227Z,3.4
2022-12-14T01:40:01.129Z,3.4
2022-12-14T01:45:01.172Z,3.4
2022-12-14T01:50:01.176Z,3.4
2022-12-14T01:55:00.924Z,3.4
2022-12-14T02:00:06.810Z,3.4
2022-12-14T02:05:01.224Z,3.4
2022-12-14T02:10:00.958Z,3.4
2022-12-14T02:15:01.185Z,3.4
2022-12-14T02:20:01.133Z,3.4
2022-12-14T02:25:01.152Z,3.4
2022-12-14T02:30:01.232Z,3.4
2022-12-14T02:35:01.159Z,3.4
2022-12-14T02:40:01.179Z,3.4
2022-12-14T02:45:01.146Z,3.4
2022-12-14T02:50:01.390Z,3.4
2022-12-14T02:55:01.164Z,3.4
2022-12-14T03:00:01.196Z,3.4
2022-12-14T03:05:01.133Z,3.4
2022-12-14T03:10:00.941Z,3.4
2022-12-14T03:15:01.180Z,3.4
2022-12-14T03:20:01.215Z,3.4
2022-12-14T03:25:01.194Z,3.4
2022-12-14T03:30:01.239Z,3.4
2022-12-14T03:35:01.267Z,3.4
2022-12-14T03:40:01.137Z,3.4
2022-12-14T03:45:01.315Z,3.4
2022-12-14T03:50:01.236Z,3.5
2022-12-14T03:55:01.238Z,3.5
2022-12-14T04:00:01.167Z,3.5
2022-12-14T04:05:01.190Z,3.5
2022-12-14T04:10:01.136Z,3.5
2022-12-14T04:15:01.143Z,3.5
2022-12-14T04:20:01.174Z,3.5
2022-12-14T04:25:01.118Z,3.5
2022-12-14T04:30:01.197Z,3.5
2022-12-14T04:35:01.178Z,3.5
2022-12-14T04:40:01.211Z,3.5
2022-12-14T04:45:01.150Z,3.5
2022-12-14T04:50:01.220Z,3.5
2022-12-14T04:55:01.160Z,3.6
2022-12-14T05:00:01.145Z,3.6
2022-12-14T05:05:01.175Z,3.7
2022-12-14T05:10:01.176Z,3.7
2022-12-14T05:15:01.161Z,3.7
2022-12-14T05:20:01.157Z,3.6
2022-12-14T05:25:01.127Z,3.6
2022-12-14T05:30:01.200Z,3.6
2022-12-14T05:35:01.145Z,3.6
2022-12-14T05:40:01.196Z,3.6
2022-12-14T05:45:00.921Z,3.6
2022-12-14T05:50:01.137Z,3.7
2022-12-14T05:55:04.329Z,3.7
2022-12-14T06:00:01.183Z,3.7
2022-12-14T06:05:01.211Z,3.7
2022-12-14T06:10:00.915Z,3.8
2022-12-14T06:15:01.181Z,3.8
2022-12-14T06:20:01.314Z,3.8
2022-12-14T06:25:01.148Z,3.8
2022-12-14T06:30:01.147Z,3.8
2022-12-14T06:35:01.185Z,3.8
2022-12-14T06:40:01.108Z,3.8
2022-12-14T06:45:00.964Z,3.8
2022-12-14T06:50:01.187Z,3.8
2022-12-14T06:55:01.172Z,3.8
2022-12-14T07:00:01.217Z,3.8
2022-12-14T07:05:01.883Z,3.8
2022-12-14T07:10:01.235Z,3.8
2022-12-14T07:15:01.292Z,3.8
2022-12-14T07:20:01.291Z,3.8
2022-12-14T07:25:01.163Z,3.8
2022-12-14T07:30:01.170Z,3.9
2022-12-14T07:35:01.125Z,3.9
2022-12-14T07:40:01.148Z,3.9
2022-12-14T07:45:01.217Z,3.9
2022-12-14T07:50:01.164Z,3.9
2022-12-14T07:55:01.206Z,3.9
2022-12-14T08:00:01.208Z,3.9
2022-12-14T08:05:01.208Z,3.9
2022-12-14T08:10:01.184Z,3.9
2022-12-14T08:15:01.303Z,3.9
2022-12-14T08:20:01.246Z,4
2022-12-14T08:25:01.208Z,4
2022-12-14T08:30:01.156Z,4
2022-12-14T08:35:01.180Z,4
2022-12-14T08:40:01.177Z,4
2022-12-14T08:45:01.197Z,4.1
2022-12-14T08:50:01.137Z,4.1
2022-12-14T08:55:01.160Z,4.1
2022-12-14T09:00:02.439Z,4.1
2022-12-14T09:05:01.196Z,4.1
2022-12-14T09:10:01.177Z,4.2
2022-12-14T09:15:01.229Z,4.2
2022-12-14T09:20:01.119Z,4.2
2022-12-14T09:25:01.161Z,4.2
2022-12-14T09:30:01.143Z,4.1
2022-12-14T09:35:01.164Z,4.1
2022-12-14T09:40:01.184Z,4.2
2022-12-14T09:45:01.196Z,4.2
2022-12-14T09:50:01.191Z,4.2
2022-12-14T09:55:01.136Z,4.2
2022-12-14T10:00:01.270Z,4.2
2022-12-14T10:05:01.163Z,4.2
2022-12-14T10:10:01.269Z,4.3
2022-12-14T10:15:01.192Z,4.3
2022-12-14T10:20:00.914Z,4.4
2022-12-14T10:25:01.173Z,4.4
2022-12-14T10:30:01.164Z,4.5
2022-12-14T10:35:01.157Z,4.5
2022-12-14T10:40:03.494Z,4.5
2022-12-14T10:45:31.413Z,4.6
2022-12-14T10:50:01.167Z,4.6
2022-12-14T10:55:01.175Z,4.8
2022-12-14T11:00:08.837Z,4.8
2022-12-14T11:05:01.145Z,4.8
2022-12-14T11:10:01.166Z,4.9
2022-12-14T11:15:01.156Z,4.9
2022-12-14T11:20:01.152Z,4.9
2022-12-14T11:25:01.166Z,4.9
2022-12-14T11:30:01.121Z,5
2022-12-14T11:35:01.151Z,5.1
2022-12-14T11:40:01.189Z,5
2022-12-14T11:45:01.125Z,4.9
2022-12-14T11:50:01.190Z,4.9
2022-12-14T11:55:01.146Z,5
2022-12-14T12:00:01.165Z,5
2022-12-14T12:05:01.167Z,5
2022-12-14T12:10:01.137Z,5
2022-12-14T12:15:01.181Z,5
2022-12-14T12:20:01.230Z,5
2022-12-14T12:25:24.593Z,5
2022-12-14T12:30:01.142Z,5
2022-12-14T12:35:10.895Z,5
2022-12-14T12:40:01.173Z,5
2022-12-14T12:45:01.227Z,4.9
2022-12-14T12:50:01.323Z,4.9
2022-12-14T12:55:01.133Z,4.9
2022-12-14T13:00:01.151Z,4.8
2022-12-14T13:05:16.478Z,4.9
2022-12-14T13:10:05.438Z,4.8
2022-12-14T13:15:01.180Z,4.8
2022-12-14T13:20:01.559Z,4.8
2022-12-14T13:25:01.451Z,4.8
2022-12-14T13:30:01.155Z,4.8
2022-12-14T13:35:01.173Z,4.9
2022-12-14T13:40:01.157Z,4.9
2022-12-14T13:45:01.165Z,4.9
2022-12-14T13:55:01.194Z,4.8
2022-12-14T14:00:01.190Z,4.8
2022-12-14T14:05:01.145Z,4.8
2022-12-14T14:10:01.144Z,4.8
2022-12-14T14:15:01.176Z,4.7
2022-12-14T14:20:01.150Z,4.8
2022-12-14T14:25:01.158Z,4.8
2022-12-14T14:30:01.201Z,4.8
2022-12-14T14:35:01.187Z,4.7
2022-12-14T14:40:13.168Z,4.7
2022-12-14T14:45:01.160Z,4.8
2022-12-14T14:50:01.142Z,4.8
2022-12-14T14:55:28.094Z,4.8
2022-12-14T15:00:01.223Z,4.8
2022-12-14T15:05:17.816Z,4.8
2022-12-14T15:10:01.288Z,4.9
2022-12-14T15:15:01.203Z,4.9
2022-12-14T15:20:01.282Z,4.9
2022-12-14T15:25:01.192Z,4.9
2022-12-14T15:30:01.249Z,4.9
2022-12-14T15:35:01.145Z,4.9
2022-12-14T15:40:01.195Z,4.8
2022-12-14T15:45:01.162Z,4.8
2022-12-14T15:50:04.395Z,4.8
2022-12-14T15:55:01.124Z,4.8
2022-12-14T16:00:01.156Z,4.8
2022-12-14T16:05:01.253Z,4.8
2022-12-14T16:10:01.162Z,4.8
2022-12-14T16:15:01.184Z,4.8
2022-12-14T16:20:01.423Z,4.8
2022-12-14T16:25:01.166Z,4.8
2022-12-14T16:30:01.164Z,4.8
2022-12-14T16:35:01.187Z,4.8
2022-12-14T16:40:01.158Z,4.8
2022-12-14T16:45:01.208Z,4.8
2022-12-14T16:50:01.190Z,4.8
2022-12-14T16:55:01.140Z,4.9
2022-12-14T17:00:01.182Z,4.9
2022-12-14T17:05:01.188Z,4.9
2022-12-14T17:10:01.186Z,5
2022-12-14T17:15:01.163Z,4.9
2022-12-14T17:20:01.170Z,4.9
2022-12-14T17:25:01.154Z,4.9
2022-12-14T17:30:01.148Z,4.9
2022-12-14T17:35:01.147Z,4.9
2022-12-14T17:40:01.175Z,4.8
2022-12-14T17:45:01.163Z,4.8
2022-12-14T17:50:01.169Z,4.8
2022-12-14T17:55:00.978Z,4.8
2022-12-14T18:00:01.155Z,4.8
2022-12-14T18:05:01.195Z,4.8
2022-12-14T18:10:01.206Z,4.8
2022-12-14T18:15:01.125Z,4.8
2022-12-14T18:20:01.118Z,4.8
2022-12-14T18:25:01.170Z,4.8
2022-12-14T18:30:01.181Z,4.9
2022-12-14T18:35:01.160Z,4.9
2022-12-14T18:40:01.168Z,4.8
2022-12-14T18:45:01.136Z,4.8
2022-12-14T18:50:01.146Z,4.8
2022-12-14T18:55:01.168Z,4.8
2022-12-14T19:00:01.106Z,4.9
2022-12-14T19:05:01.185Z,4.9
2022-12-14T19:10:01.207Z,4.9
2022-12-14T19:15:01.122Z,4.9
2022-12-14T19:20:01.167Z,4.9
2022-12-14T19:25:01.153Z,4.9
2022-12-14T19:30:01.113Z,4.9
2022-12-14T19:35:01.105Z,4.9
2022-12-14T19:40:01.094Z,4.9
2022-12-14T19:45:01.107Z,4.9
2022-12-14T19:50:01.135Z,4.9
2022-12-14T19:55:01.153Z,4.9
2022-12-14T20:00:01.211Z,4.9
2022-12-14T20:05:01.201Z,4.9
2022-12-14T20:10:01.118Z,4.9
2022-12-14T20:15:01.111Z,4.9
2022-12-14T20:20:00.952Z,4.9
2022-12-14T20:25:01.165Z,5
2022-12-14T20:30:01.233Z,5
2022-12-14T20:35:01.177Z,4.9
2022-12-14T20:40:01.189Z,5
2022-12-14T20:45:05.359Z,4.9
2022-12-14T20:50:01.058Z,4.9
2022-12-14T20:55:01.196Z,5
2022-12-14T21:00:01.199Z,5
2022-12-14T21:05:01.133Z,5
2022-12-14T21:10:01.186Z,5
2022-12-14T21:15:01.146Z,5
2022-12-14T21:20:01.211Z,5
2022-12-14T21:25:03.404Z,5
2022-12-14T21:30:01.160Z,5
2022-12-14T21:35:01.167Z,5
2022-12-14T21:40:01.484Z,5
2022-12-14T21:45:00.937Z,5
2022-12-14T21:50:00.822Z,5
2022-12-14T21:55:01.197Z,5
2022-12-14T22:00:01.227Z,5
2022-12-14T22:05:01.180Z,5
2022-12-14T22:10:01.260Z,5
2022-12-14T22:15:01.161Z,5
2022-12-14T22:20:00.934Z,5
2022-12-14T22:25:00.864Z,5
2022-12-14T22:30:01.117Z,5
2022-12-14T22:35:01.197Z,5
2022-12-14T22:40:01.131Z,5
2022-12-14T22:45:00.945Z,5
2022-12-14T22:50:01.128Z,5
2022-12-14T22:55:00.914Z,5
2022-12-14T23:00:01.174Z,5
2022-12-14T23:05:01.109Z,5
2022-12-14T23:10:00.924Z,5.1
2022-12-14T23:15:00.874Z,5.1
2022-12-14T23:20:04.535Z,5.1
2022-12-14T23:25:01.193Z,5.1
2022-12-14T23:30:01.198Z,5.1
2022-12-14T23:35:01.135Z,5.1
2022-12-14T23:40:01.158Z,5.1
2022-12-14T23:45:01.220Z,5.2
2022-12-14T23:50:01.102Z,5.2
2022-12-14T23:55:01.135Z,5.2
